Time;durP1;ratioP1;P1;durP2;ratioP2;P2;SDS_P1;SDS_P2;PMS_P1;PMS_P2;Temp;Humidity;BMP_temperature;BMP_pressure;BME280_temperature;BME280_humidity;BME280_pressure;Samples;Min_cycle;Max_cycle;Signal;HPM_P1;HPM_P2
2022/04/16 00:05:40;;;;;;;18.2;22.8;;;;;;;8.3;80.6;99110;;;;
2022/04/16 00:15:40;;;;;;;18.9;25.3;;;;;;;8.3;80.6;99100;;;;
2022/04/16 00:26:40;;;;;;;18.9;25.3;;;;;;;8.2;81;99100;;;;
2022/04/16 00:37:40;;;;;;;18.9;25.3;;;;;;;8.2;81.1;99090;;;;
2022/04/16 00:47:40;;;;;;;23.8;29.7;;;;;;;8.2;81.2;99090;;;;
2022/04/16 00:58:40;;;;;;;23.8;29.7;;;;;;;8.2;81.6;99090;;;;
2022/04/16 01:09:41;;;;;;;23.8;29.7;;;;;;;8.2;81.5;99090;;;;
2022/04/16 01:19:41;;;;;;;22.6;27.9;;;;;;;8.2;81.1;99090;;;;
2022/04/16 01:30:40;;;;;;;22.6;27.9;;;;;;;8.2;81.4;99090;;;;
2022/04/16 01:40:40;;;;;;;22.6;27.9;;;;;;;8.3;81.5;99100;;;;
2022/04/16 01:50:40;;;;;;;20.1;22.4;;;;;;;8.3;81.7;99110;;;;
2022/04/16 02:01:40;;;;;;;20.1;22.4;;;;;;;8.2;81.4;99120;;;;
2022/04/16 02:12:40;;;;;;;20.1;22.4;;;;;;;8;80.1;99120;;;;
2022/04/16 02:23:40;;;;;;;9.3;13.5;;;;;;;7.9;80.2;99130;;;;
2022/04/16 02:34:40;;;;;;;9.3;13.5;;;;;;;7.7;81.3;99140;;;;
2022/04/16 02:54:41;;;;;;;2.7;4.7;;;;;;;7.4;83.2;99150;;;;
2022/04/16 03:05:41;;;;;;;2.7;4.7;;;;;;;7.3;83.1;99160;;;;
2022/04/16 03:17:40;;;;;;;2.5;4.2;;;;;;;7.1;83.2;99180;;;;
2022/04/16 03:27:40;;;;;;;2.5;4.2;;;;;;;6.8;82.3;99190;;;;
2022/04/16 03:38:40;;;;;;;2.5;4.2;;;;;;;6.6;81.8;99200;;;;
2022/04/16 03:49:40;;;;;;;1.5;3.1;;;;;;;6.6;82.1;99210;;;;
2022/04/16 04:00:40;;;;;;;1.5;3.1;;;;;;;6.5;82;99230;;;;
2022/04/16 04:10:40;;;;;;;1.5;3.1;;;;;;;6.6;81.8;99240;;;;
2022/04/16 04:21:40;;;;;;;1.3;2.9;;;;;;;6.5;80.9;99260;;;;
2022/04/16 04:31:40;;;;;;;1.3;2.9;;;;;;;6.4;81.2;99270;;;;
2022/04/16 04:42:40;;;;;;;1.3;2.9;;;;;;;6.3;81.3;99290;;;;
2022/04/16 04:52:40;;;;;;;1.3;2.4;;;;;;;6.2;82;99310;;;;
2022/04/16 05:03:40;;;;;;;1.3;2.4;;;;;;;5.9;82.3;99330;;;;
2022/04/16 05:13:40;;;;;;;1.3;2.4;;;;;;;5.8;83.6;99350;;;;
2022/04/16 05:24:40;;;;;;;1.6;3;;;;;;;5.7;83.5;99360;;;;
2022/04/16 05:35:40;;;;;;;1.6;3;;;;;;;5.6;83.8;99370;;;;
2022/04/16 05:46:40;;;;;;;1.4;2.8;;;;;;;5.8;84.1;99370;;;;
2022/04/16 05:56:40;;;;;;;1.4;2.8;;;;;;;5.7;82.9;99390;;;;
2022/04/16 06:06:41;;;;;;;1.4;2.8;;;;;;;5.5;82.6;99400;;;;
2022/04/16 06:17:40;;;;;;;1.1;1.8;;;;;;;5.4;83.3;99400;;;;
2022/04/16 06:27:40;;;;;;;1.1;1.8;;;;;;;5.6;84;99410;;;;
2022/04/16 06:38:40;;;;;;;1.1;1.8;;;;;;;5.7;84.3;99420;;;;
2022/04/16 06:49:40;;;;;;;1.1;1.8;;;;;;;5.9;84.1;99430;;;;
2022/04/16 06:59:40;;;;;;;1.1;1.8;;;;;;;5.9;83.8;99440;;;;
2022/04/16 07:09:40;;;;;;;1.1;1.8;;;;;;;5.7;83.5;99450;;;;
2022/04/16 07:20:41;;;;;;;1.9;4;;;;;;;5.7;83.9;99460;;;;
2022/04/16 07:31:40;;;;;;;1.9;4;;;;;;;5.6;83;99470;;;;
2022/04/16 07:42:40;;;;;;;1.9;4;;;;;;;5.7;83.2;99490;;;;
2022/04/16 07:52:40;;;;;;;2.4;5.1;;;;;;;5.6;83.1;99500;;;;
2022/04/16 08:03:40;;;;;;;2.4;5.1;;;;;;;5.4;83.3;99510;;;;
2022/04/16 08:14:40;;;;;;;3.5;5.6;;;;;;;5.2;83.3;99520;;;;
2022/04/16 08:25:47;;;;;;;3.5;5.6;;;;;;;5.3;83.8;99530;;;;
2022/04/16 08:36:40;;;;;;;3.5;5.6;;;;;;;5.3;84;99540;;;;
2022/04/16 08:46:40;;;;;;;4.9;6.9;;;;;;;5.2;83.7;99550;;;;
2022/04/16 08:57:41;;;;;;;4.9;6.9;;;;;;;5.2;83;99560;;;;
2022/04/16 09:07:40;;;;;;;4.9;6.9;;;;;;;5.1;82.1;99570;;;;
2022/04/16 09:18:40;;;;;;;6.3;9.8;;;;;;;5.3;82.3;99570;;;;
2022/04/16 09:28:40;;;;;;;6.3;9.8;;;;;;;5.3;81;99580;;;;
2022/04/16 09:39:40;;;;;;;6.3;9.8;;;;;;;5.5;80.2;99590;;;;
2022/04/16 09:49:40;;;;;;;5.3;8.2;;;;;;;6.2;78.8;99590;;;;
2022/04/16 10:00:41;;;;;;;5.3;8.2;;;;;;;6.6;75.7;99600;;;;
2022/04/16 10:12:59;;;;;;;5.3;8.2;;;;;;;6;75.1;99630;;;;
2022/04/16 10:21:40;;;;;;;4.2;7.7;;;;;;;6.5;75;99630;;;;
2022/04/16 10:32:40;;;;;;;4.2;7.7;;;;;;;6.8;69.8;99630;;;;
2022/04/16 10:43:40;;;;;;;4.5;8.2;;;;;;;6.7;69.8;99650;;;;
2022/04/16 10:53:40;;;;;;;4.5;8.2;;;;;;;6.2;70.8;99670;;;;
2022/04/16 11:04:40;;;;;;;4.5;8.2;;;;;;;6.5;71.7;99680;;;;
2022/04/16 11:15:40;;;;;;;4.6;8.5;;;;;;;7.5;68.7;99680;;;;
2022/04/16 11:36:40;;;;;;;4.6;8.5;;;;;;;9;64.1;99690;;;;
2022/04/16 11:46:41;;;;;;;3.4;6;;;;;;;9.2;61;99680;;;;
2022/04/16 11:56:40;;;;;;;3.4;6;;;;;;;8.9;61.7;99680;;;;
2022/04/16 12:07:40;;;;;;;3.4;6;;;;;;;8.6;59.9;99690;;;;
2022/04/16 12:17:40;;;;;;;3.5;5.8;;;;;;;8.8;63;99680;;;;
2022/04/16 12:27:40;;;;;;;3.5;5.8;;;;;;;9.4;58.5;99680;;;;
2022/04/16 12:37:40;;;;;;;3.5;5.8;;;;;;;9.4;57.7;99680;;;;
2022/04/16 12:48:40;;;;;;;2.7;5;;;;;;;9.9;53.3;99680;;;;
2022/04/16 12:59:40;;;;;;;2.7;5;;;;;;;9.2;53.2;99700;;;;
2022/04/16 13:09:40;;;;;;;2.7;5;;;;;;;9.1;54.9;99710;;;;
2022/04/16 13:19:40;;;;;;;2.8;6.7;;;;;;;9.3;53.5;99700;;;;
2022/04/16 13:29:40;;;;;;;2.8;6.7;;;;;;;9.6;50.5;99710;;;;
2022/04/16 13:41:44;;;;;;;2.8;6.7;;;;;;;9.2;50.5;99700;;;;
2022/04/16 13:50:40;;;;;;;2.5;3.8;;;;;;;9.3;50.6;99690;;;;
2022/04/16 14:01:40;;;;;;;2.5;3.8;;;;;;;9.8;47;99700;;;;
2022/04/16 14:11:41;;;;;;;2.5;3.8;;;;;;;9.4;47.5;99700;;;;
2022/04/16 14:21:40;;;;;;;2.3;4.3;;;;;;;9.4;48.2;99710;;;;
2022/04/16 14:31:40;;;;;;;2.3;4.3;;;;;;;9.2;47.1;99710;;;;
2022/04/16 14:42:40;;;;;;;6.6;10.6;;;;;;;9.2;47;99720;;;;
2022/04/16 14:52:40;;;;;;;6.6;10.6;;;;;;;9.8;45.8;99710;;;;
2022/04/16 15:02:40;;;;;;;6.6;10.6;;;;;;;9;46.6;99730;;;;
2022/04/16 15:13:40;;;;;;;7.1;9.8;;;;;;;8.7;47.9;99740;;;;
2022/04/16 15:23:40;;;;;;;7.1;9.8;;;;;;;8.6;47.1;99730;;;;
2022/04/16 15:33:40;;;;;;;7.1;9.8;;;;;;;8.2;48;99750;;;;
2022/04/16 15:43:40;;;;;;;6;8.8;;;;;;;8.1;48.2;99750;;;;
2022/04/16 15:54:40;;;;;;;6;8.8;;;;;;;7.9;48.4;99750;;;;
2022/04/16 16:04:56;;;;;;;6;8.8;;;;;;;7.9;48.8;99760;;;;
2022/04/16 16:15:40;;;;;;;17.3;25.1;;;;;;;7.8;49.1;99760;;;;
2022/04/16 16:25:40;;;;;;;17.3;25.1;;;;;;;7.6;49.5;99770;;;;
2022/04/16 16:36:40;;;;;;;17.3;25.1;;;;;;;7.3;49.8;99780;;;;
2022/04/16 16:47:40;;;;;;;6.1;9.3;;;;;;;7.2;50.2;99790;;;;
2022/04/16 16:57:40;;;;;;;6.1;9.3;;;;;;;7.1;50.4;99800;;;;
2022/04/16 17:08:40;;;;;;;6.1;9.3;;;;;;;7;50;99810;;;;
2022/04/16 17:18:40;;;;;;;30.8;38.1;;;;;;;6.9;51.3;99830;;;;
2022/04/16 17:29:40;;;;;;;30.8;38.1;;;;;;;6.8;51.4;99830;;;;
2022/04/16 17:39:40;;;;;;;30.8;38.1;;;;;;;6.7;52.5;99850;;;;
2022/04/16 17:49:40;;;;;;;5;8.5;;;;;;;6.6;53;99850;;;;
2022/04/16 17:59:42;;;;;;;5;8.5;;;;;;;6.5;53.5;99860;;;;
2022/04/16 18:10:40;;;;;;;5;8.5;;;;;;;6.4;54.3;99870;;;;
2022/04/16 18:20:40;;;;;;;7.3;10.8;;;;;;;6.4;54.4;99880;;;;
2022/04/16 18:30:40;;;;;;;7.3;10.8;;;;;;;6.3;55.2;99880;;;;
2022/04/16 18:41:40;;;;;;;7.3;10.8;;;;;;;6.2;55.3;99890;;;;
2022/04/16 18:51:40;;;;;;;4.6;7.4;;;;;;;6.1;56.3;99900;;;;
2022/04/16 19:12:40;;;;;;;6.4;9;;;;;;;5.9;58.2;99900;;;;
2022/04/16 19:22:40;;;;;;;6.4;9;;;;;;;5.8;58.9;99900;;;;
2022/04/16 19:33:40;;;;;;;6.4;9;;;;;;;5.7;60.5;99900;;;;
2022/04/16 19:44:40;;;;;;;17.7;25.3;;;;;;;5.5;62.1;99900;;;;
2022/04/16 19:54:40;;;;;;;17.7;25.3;;;;;;;5.4;62;99900;;;;
2022/04/16 20:04:41;;;;;;;17.7;25.3;;;;;;;5.2;62.4;99900;;;;
2022/04/16 20:14:41;;;;;;;14;18.9;;;;;;;5;63.1;99910;;;;
2022/04/16 20:24:40;;;;;;;14;18.9;;;;;;;4.9;63.6;99910;;;;
2022/04/16 20:34:40;;;;;;;14;18.9;;;;;;;4.8;64.9;99900;;;;
2022/04/16 20:45:45;;;;;;;15.2;21.7;;;;;;;4.8;65.8;99900;;;;
2022/04/16 20:54:41;;;;;;;15.2;21.7;;;;;;;4.8;65.9;99900;;;;
2022/04/16 21:05:41;;;;;;;15.2;21.7;;;;;;;4.7;67.6;99890;;;;
2022/04/16 21:15:40;;;;;;;17.5;24.8;;;;;;;4.8;67.2;99890;;;;
2022/04/16 21:25:40;;;;;;;17.5;24.8;;;;;;;4.8;67.1;99890;;;;
2022/04/16 21:36:40;;;;;;;17.5;24.8;;;;;;;4.8;68.5;99890;;;;
2022/04/16 21:46:40;;;;;;;14.6;17.9;;;;;;;4.8;68.5;99890;;;;
2022/04/16 21:57:44;;;;;;;14.6;17.9;;;;;;;4.7;67.6;99900;;;;
2022/04/16 22:08:41;;;;;;;14.6;17.9;;;;;;;4.6;68;99900;;;;
2022/04/16 22:18:40;;;;;;;12.8;16.8;;;;;;;4.5;68.1;99890;;;;
2022/04/16 22:29:40;;;;;;;12.8;16.8;;;;;;;4.4;67.7;99890;;;;
2022/04/16 22:49:40;;;;;;;10.5;13.9;;;;;;;4.1;69.6;99880;;;;
2022/04/16 23:00:42;;;;;;;10.5;13.9;;;;;;;4;68.7;99870;;;;
2022/04/16 23:10:40;;;;;;;10.5;13.9;;;;;;;3.9;69.3;99870;;;;
2022/04/16 23:21:40;;;;;;;11;17.6;;;;;;;3.6;71.9;99860;;;;
2022/04/16 23:31:40;;;;;;;11;17.6;;;;;;;3.6;71.7;99860;;;;
2022/04/16 23:41:41;;;;;;;11.4;16.2;;;;;;;3.5;73.3;99860;;;;
2022/04/16 23:51:40;;;;;;;11.4;16.2;;;;;;;3.5;72.3;99850;;;;
